• Join FlightAware (Why Join?)
  • Login
  • US Flag 
12:00PM EDT


 

Airport Tracker/Info


-or-


 

Live Flight TrackerFlight Track Log ✈ N244A ✈ 03-Jul-2013 ✈ KORL - KAPF

Flight Track Log - Related Links

Times and Time Zones

All times are in EDT time to prevent confusion due to time zone crossing. See the N244A flight status page for this flight to view local times or setup timezone preferences in your user account.

Time Position Orientation Groundspeed Altitude Reporting Facility
EDT Latitude Longitude Course Direction KTS MPH feet Rate Location/Type
11:17PM 28.5500 -81.3167 77° East 144 166 500  Level Orlando TRACON
11:18PM 28.5667 -81.2333 77° East 224 258 3,800 2,460 Climbing Orlando TRACON
11:19PM 28.5167 -81.2000 150° Southeast 244 281 6,500 2,760 Climbing Orlando TRACON
11:20PM 28.4500 -81.2167 192° South 270 311 9,400 2,160 Climbing Orlando TRACON
11:22PM 28.2903 -81.3056 206° Southwest 326 375 13,600 1,440 Climbing Miami Center
11:23PM 28.1947 -81.3558 205° Southwest 346 398 14,000 180 Climbing Miami Center
11:24PM 28.0886 -81.4128 205° Southwest 380 437 14,000  Level Miami Center
11:25PM 27.9867 -81.4675 205° Southwest 398 458 14,000  Level Miami Center
11:26PM 27.8869 -81.5244 207° Southwest 398 458 14,000  Level Miami Center
11:27PM 27.7892 -81.5792 206° Southwest 403 464 14,000  Level Miami Center
11:28PM 27.6869 -81.6336 205° Southwest 403 464 14,000  Level Miami Center
11:29PM 27.6064 -81.6747 204° Southwest 403 464 14,000  Level Miami Center
11:30PM 27.4817 -81.7233 199° South 403 464 14,000  Level Miami Center
11:31PM 27.3825 -81.6911 164° South 364 419 14,000  Level Miami Center
11:32PM 27.2883 -81.6381 153° Southeast 364 419 14,000 -420 Level Miami Center
11:33PM 27.1958 -81.5897 155° Southeast 371 427 13,200 -960 Descending Miami Center
11:34PM 27.1017 -81.5394 155° Southeast 371 427 12,100 -600 Descending Miami Center
11:35PM 27.0153 -81.4939 155° Southeast 364 419 12,000 -600 Descending Miami Center
11:36PM 26.9311 -81.4486 154° Southeast 340 391 11,000 -540 Descending Miami Center
11:37PM 26.8553 -81.4083 155° Southeast 319 367 11,000  Level Miami Center
11:38PM 26.7753 -81.4239 190° South 290 334 11,000 -480 Level Miami Center
11:39PM 26.6989 -81.4675 207° Southwest 302 348 10,100 -1,500 Descending Miami Center
11:40PM 26.6308 -81.5042 206° Southwest 297 342 8,000 -2,280 Descending Miami Center
11:41PM 26.5606 -81.5456 208° Southwest 284 327 5,600 -1,560 Descending Miami Center
11:42PM 26.4969 -81.5803 206° Southwest 276 318 5,000 -600 Descending Miami Center
11:44PM 26.3973 -81.6180 204° Southwest  Level FlightAware Approximate